createdAt,value
2023-04-20T00:00:58.617Z,8.30
2023-04-20T00:03:27.704Z,8.40
2023-04-20T00:05:55.949Z,8.30
2023-04-20T00:08:24.075Z,7.50
2023-04-20T00:10:52.180Z,7.30
2023-04-20T00:13:20.383Z,7.90
2023-04-20T00:15:48.483Z,7.80
2023-04-20T00:18:16.671Z,7.60
2023-04-20T00:20:44.859Z,7.40
2023-04-20T00:23:13.283Z,7.50
2023-04-20T00:25:41.437Z,8.20
2023-04-20T00:28:09.521Z,7.60
2023-04-20T00:30:37.758Z,7.40
2023-04-20T00:36:58.013Z,7.60
2023-04-20T00:39:27.431Z,7.50
2023-04-20T00:42:04.697Z,8.20
2023-04-20T00:44:33.296Z,6.90
2023-04-20T00:47:02.177Z,7.50
2023-04-20T00:49:31.314Z,6.90
2023-04-20T00:52:01.021Z,7.80
2023-04-20T00:54:30.787Z,6.90
2023-04-20T00:57:00.642Z,7.70
2023-04-20T00:59:28.866Z,6.80
2023-04-20T01:06:31.030Z,6.10
2023-04-20T01:08:59.140Z,6.80
2023-04-20T01:11:27.358Z,6.20
2023-04-20T01:13:55.575Z,6.50
2023-04-20T01:16:23.675Z,6.10
2023-04-20T01:18:51.828Z,5.90
2023-04-20T01:21:23.862Z,6.00
2023-04-20T01:23:53.662Z,5.40
2023-04-20T01:26:24.043Z,5.40
2023-04-20T01:28:52.825Z,6.10
2023-04-20T01:31:21.267Z,5.80
2023-04-20T01:33:49.951Z,5.80
2023-04-20T01:36:53.655Z,6.20
2023-04-20T01:39:21.985Z,6.10
2023-04-20T01:41:50.753Z,5.80
2023-04-20T01:44:19.143Z,6.00
2023-04-20T01:46:47.241Z,5.70
2023-04-20T01:49:15.626Z,5.50
2023-04-20T01:51:44.200Z,6.10
2023-04-20T01:54:12.249Z,6.00
2023-04-20T01:56:40.746Z,5.70
2023-04-20T01:59:09.426Z,5.60
2023-04-20T02:01:37.796Z,6.40
2023-04-20T02:04:05.889Z,6.00
2023-04-20T02:06:34.045Z,6.20
2023-04-20T02:09:02.354Z,5.70
2023-04-20T02:11:30.468Z,5.70
2023-04-20T02:13:58.543Z,6.60
2023-04-20T02:16:29.485Z,5.50
2023-04-20T02:18:58.175Z,6.80
2023-04-20T02:21:26.310Z,5.50
2023-04-20T02:23:54.433Z,5.90
2023-04-20T02:26:22.716Z,6.20
2023-04-20T02:28:51.103Z,6.00
2023-04-20T02:31:19.272Z,5.60
2023-04-20T02:33:49.960Z,5.60
2023-04-20T02:36:18.426Z,5.90
2023-04-20T02:38:46.577Z,5.50
2023-04-20T02:41:14.659Z,6.30
2023-04-20T02:43:43.082Z,6.10
2023-04-20T02:46:12.405Z,6.10
2023-04-20T02:48:40.602Z,5.90
2023-04-20T02:51:09.305Z,6.20
2023-04-20T02:53:43.245Z,7.00
2023-04-20T02:56:17.066Z,6.30
2023-04-20T02:58:48.779Z,5.60
2023-04-20T03:01:23.827Z,6.20
2023-04-20T03:03:56.933Z,6.10
2023-04-20T03:06:26.827Z,6.90
2023-04-20T03:08:56.857Z,6.40
2023-04-20T03:11:47.855Z,5.70
2023-04-20T03:14:23.915Z,6.20
2023-04-20T03:16:52.899Z,6.20
2023-04-20T03:19:21.143Z,7.00
2023-04-20T03:21:49.937Z,8.20
2023-04-20T03:24:19.441Z,6.60
2023-04-20T03:26:47.673Z,6.20
2023-04-20T03:29:19.099Z,6.90
2023-04-20T03:31:48.060Z,5.90
2023-04-20T03:34:16.441Z,6.70
2023-04-20T03:36:45.825Z,6.20
2023-04-20T03:39:14.086Z,6.40
2023-04-20T03:41:42.400Z,6.60
2023-04-20T03:44:10.703Z,7.20
2023-04-20T03:46:38.892Z,7.80
2023-04-20T03:49:07.101Z,6.90
2023-04-20T03:51:35.306Z,7.00
2023-04-20T03:54:03.473Z,6.70
2023-04-20T03:56:31.998Z,6.20
2023-04-20T03:59:01.032Z,7.00
2023-04-20T04:01:29.414Z,7.30
2023-04-20T04:03:58.857Z,6.30
2023-04-20T04:06:27.642Z,7.00
2023-04-20T04:08:56.270Z,6.30
2023-04-20T04:11:26.175Z,7.00
2023-04-20T04:13:54.495Z,6.80
2023-04-20T04:16:23.051Z,6.80
2023-04-20T04:18:51.729Z,7.20
2023-04-20T04:21:21.220Z,6.90
2023-04-20T04:23:54.735Z,7.90
2023-04-20T04:26:34.233Z,7.00
2023-04-20T04:29:04.741Z,6.90
2023-04-20T04:31:35.202Z,7.40
2023-04-20T04:34:08.116Z,7.70
2023-04-20T04:36:44.345Z,7.20
2023-04-20T04:39:14.776Z,7.50
2023-04-20T04:41:48.795Z,7.30
2023-04-20T04:44:28.874Z,7.50
2023-04-20T04:46:58.894Z,7.10
2023-04-20T04:49:27.452Z,6.90
2023-04-20T04:51:55.975Z,7.00
2023-04-20T04:54:24.213Z,8.20
2023-04-20T04:56:52.437Z,7.80
2023-04-20T04:59:20.890Z,8.10
2023-04-20T05:01:49.614Z,7.40
2023-04-20T05:04:18.183Z,7.40
2023-04-20T05:06:46.441Z,8.00
2023-04-20T05:09:14.620Z,7.40
2023-04-20T05:11:42.849Z,7.70
2023-04-20T05:14:11.124Z,7.90
2023-04-20T05:16:39.266Z,7.80
2023-04-20T05:19:07.480Z,7.60
2023-04-20T05:21:36.317Z,7.50
2023-04-20T05:24:04.539Z,8.20
2023-04-20T05:26:32.574Z,8.20
2023-04-20T05:29:01.933Z,8.90
2023-04-20T05:31:30.998Z,8.50
2023-04-20T05:33:59.391Z,8.90
2023-04-20T05:36:28.534Z,8.50
2023-04-20T05:38:56.833Z,8.30
2023-04-20T05:41:27.409Z,8.30
2023-04-20T05:43:56.392Z,8.20
2023-04-20T05:46:24.553Z,8.70
2023-04-20T05:48:52.653Z,9.00
2023-04-20T05:51:22.060Z,9.40
2023-04-20T05:53:50.149Z,9.30
2023-04-20T05:56:18.622Z,9.70
2023-04-20T05:58:46.852Z,9.30
2023-04-20T06:01:14.937Z,9.20
2023-04-20T06:03:43.469Z,8.40
2023-04-20T06:06:12.002Z,8.20
2023-04-20T06:08:40.241Z,7.80
2023-04-20T06:11:08.567Z,8.00
2023-04-20T06:13:36.970Z,7.90
2023-04-20T06:16:09.546Z,8.60
2023-04-20T06:18:38.262Z,7.70
2023-04-20T06:21:10.472Z,7.80
2023-04-20T06:23:38.797Z,7.60
2023-04-20T06:26:09.071Z,7.80
2023-04-20T06:28:38.055Z,7.20
2023-04-20T06:31:06.641Z,8.30
2023-04-20T06:33:34.856Z,8.10
2023-04-20T06:36:03.382Z,8.00
2023-04-20T06:38:31.426Z,7.30
2023-04-20T06:41:02.886Z,7.60
2023-04-20T06:43:31.106Z,7.50
2023-04-20T06:45:59.256Z,6.80
2023-04-20T06:48:32.709Z,7.30
2023-04-20T06:51:01.839Z,7.00
2023-04-20T06:53:29.984Z,8.20
2023-04-20T06:55:58.028Z,7.30
2023-04-20T06:58:26.105Z,7.30
2023-04-20T07:00:54.454Z,7.40
2023-04-20T07:03:22.801Z,7.60
2023-04-20T07:05:51.181Z,8.30
2023-04-20T07:08:20.502Z,8.90
2023-04-20T07:10:48.588Z,8.20
2023-04-20T07:13:17.035Z,8.60
2023-04-20T07:15:45.881Z,7.60
2023-04-20T07:18:14.207Z,7.80
2023-04-20T07:20:42.324Z,7.70
2023-04-20T07:23:10.676Z,8.40
2023-04-20T07:25:39.063Z,7.70
2023-04-20T07:28:07.175Z,7.80
2023-04-20T07:30:36.000Z,8.20
2023-04-20T07:33:04.408Z,7.60
2023-04-20T07:35:32.782Z,7.30
2023-04-20T07:38:01.028Z,7.50
2023-04-20T07:40:29.176Z,7.60
2023-04-20T07:42:57.261Z,7.60
2023-04-20T07:45:26.054Z,7.90
2023-04-20T07:47:55.287Z,7.20
2023-04-20T07:50:23.410Z,7.40
2023-04-20T07:52:52.530Z,7.30
2023-04-20T07:55:21.338Z,7.30
2023-04-20T07:57:49.397Z,7.20
2023-04-20T08:00:19.195Z,8.60
2023-04-20T08:02:47.360Z,7.40
2023-04-20T08:05:16.128Z,8.10
2023-04-20T08:07:44.686Z,7.90
2023-04-20T08:10:13.002Z,7.90
2023-04-20T08:12:41.121Z,8.50
2023-04-20T08:15:11.177Z,8.00
2023-04-20T08:17:39.363Z,7.30
2023-04-20T08:20:08.493Z,7.80
2023-04-20T08:22:36.585Z,7.20
2023-04-20T08:25:05.511Z,7.30
2023-04-20T08:27:33.752Z,7.70
2023-04-20T08:30:04.476Z,8.20
2023-04-20T08:32:33.085Z,8.10
2023-04-20T08:35:01.887Z,8.50
2023-04-20T08:37:32.556Z,8.30
2023-04-20T08:40:01.262Z,7.40
2023-04-20T08:42:29.656Z,7.90
2023-04-20T08:44:59.868Z,8.10
2023-04-20T08:47:29.397Z,7.90
2023-04-20T08:50:00.140Z,7.90
2023-04-20T08:52:28.469Z,7.70
2023-04-20T08:54:57.889Z,7.70
2023-04-20T08:57:26.656Z,8.10
2023-04-20T08:59:56.492Z,8.30
2023-04-20T09:02:25.132Z,8.50
2023-04-20T09:05:05.269Z,7.50
2023-04-20T09:07:33.783Z,7.90
2023-04-20T09:10:02.291Z,7.80
2023-04-20T09:12:41.312Z,8.00
2023-04-20T09:15:10.916Z,8.30
2023-04-20T09:17:41.316Z,8.10
2023-04-20T09:20:11.498Z,8.20
2023-04-20T09:22:41.136Z,8.00
2023-04-20T09:25:13.656Z,7.80
2023-04-20T09:27:42.005Z,7.70
2023-04-20T09:30:10.929Z,7.80
2023-04-20T09:32:39.033Z,7.10
2023-04-20T09:35:08.667Z,7.80
2023-04-20T09:37:47.425Z,7.80
2023-04-20T09:40:16.685Z,7.20
2023-04-20T09:42:44.953Z,7.80
2023-04-20T09:45:14.947Z,7.00
2023-04-20T09:47:44.513Z,7.30
2023-04-20T09:50:24.815Z,7.90
2023-04-20T09:52:55.352Z,7.20
2023-04-20T09:55:24.687Z,7.30
2023-04-20T09:57:54.335Z,7.50
2023-04-20T10:00:23.152Z,7.20
2023-04-20T10:02:51.915Z,6.80
2023-04-20T10:05:20.317Z,7.90
2023-04-20T10:08:00.156Z,7.70
2023-04-20T10:10:29.031Z,7.00
2023-04-20T10:13:01.654Z,6.90
2023-04-20T10:15:40.791Z,7.30
2023-04-20T10:18:23.942Z,7.20
2023-04-20T10:21:09.624Z,6.70
2023-04-20T10:23:50.578Z,7.10
2023-04-20T10:26:18.688Z,7.00
2023-04-20T10:28:49.402Z,7.10
2023-04-20T10:31:18.333Z,6.70
2023-04-20T10:33:56.616Z,6.90
2023-04-20T10:36:37.284Z,7.20
2023-04-20T10:39:19.960Z,6.70
2023-04-20T10:42:04.025Z,6.90
2023-04-20T10:44:34.112Z,7.10
2023-04-20T10:47:02.150Z,6.40
2023-04-20T10:49:31.964Z,7.10
2023-04-20T10:52:00.151Z,7.50
2023-04-20T10:54:38.007Z,7.90
2023-04-20T10:57:07.396Z,7.00
2023-04-20T10:59:37.310Z,7.10
2023-04-20T11:02:11.141Z,6.90
2023-04-20T11:04:39.632Z,7.90
2023-04-20T11:07:09.597Z,7.70
2023-04-20T11:09:38.645Z,7.40
2023-04-20T11:12:12.002Z,6.50
2023-04-20T11:14:58.837Z,7.30
2023-04-20T11:17:37.725Z,7.70
2023-04-20T11:20:12.877Z,7.70
2023-04-20T11:22:42.537Z,7.50
2023-04-20T11:25:12.064Z,7.30
2023-04-20T11:27:41.070Z,7.70
2023-04-20T11:30:10.051Z,6.50
2023-04-20T11:32:39.339Z,6.80
2023-04-20T11:35:11.326Z,6.70
2023-04-20T11:37:51.568Z,6.60
2023-04-20T11:40:20.796Z,6.60
2023-04-20T11:42:49.127Z,6.70
2023-04-20T11:45:17.954Z,6.30
2023-04-20T11:47:47.284Z,7.10
2023-04-20T11:50:15.559Z,6.60
2023-04-20T11:52:44.202Z,7.00
2023-04-20T11:55:12.693Z,7.20
2023-04-20T11:57:40.942Z,6.70
2023-04-20T12:00:09.828Z,7.50
2023-04-20T12:02:44.204Z,7.20
2023-04-20T12:05:12.692Z,7.20
2023-04-20T12:07:40.922Z,6.90
2023-04-20T12:10:09.161Z,7.70
2023-04-20T12:12:38.866Z,7.20
2023-04-20T12:15:07.656Z,7.30
2023-04-20T12:17:35.844Z,7.00
2023-04-20T12:20:08.900Z,7.90
2023-04-20T12:22:37.137Z,7.60
2023-04-20T12:25:06.337Z,7.20
2023-04-20T12:27:34.321Z,6.90
2023-04-20T12:30:02.603Z,6.30
2023-04-20T12:32:33.446Z,7.20
2023-04-20T12:35:01.631Z,6.50
2023-04-20T12:37:29.743Z,7.40
2023-04-20T12:39:57.903Z,6.70
2023-04-20T12:42:26.035Z,6.90
2023-04-20T12:44:54.630Z,6.90
2023-04-20T12:47:22.836Z,6.70
2023-04-20T12:49:50.986Z,6.90
2023-04-20T12:52:19.255Z,6.90
2023-04-20T12:54:47.581Z,7.40
2023-04-20T12:57:15.816Z,6.70
2023-04-20T12:59:44.202Z,7.00
2023-04-20T13:02:12.659Z,6.80
2023-04-20T13:04:40.826Z,6.90
2023-04-20T13:07:10.439Z,6.30
2023-04-20T13:09:38.801Z,6.90
2023-04-20T13:12:06.992Z,6.70
2023-04-20T13:14:36.106Z,6.80
2023-04-20T13:17:06.859Z,7.00
2023-04-20T13:19:35.245Z,6.20
2023-04-20T13:22:04.012Z,6.30
2023-04-20T13:24:32.210Z,6.40
2023-04-20T13:27:01.231Z,6.60
2023-04-20T13:29:29.482Z,7.40
2023-04-20T13:31:57.713Z,6.30
2023-04-20T13:34:25.815Z,6.10
2023-04-20T13:36:54.608Z,6.30
2023-04-20T13:39:22.764Z,6.50
2023-04-20T13:41:50.796Z,6.10
2023-04-20T13:44:19.613Z,6.60
2023-04-20T13:46:48.474Z,6.50
2023-04-20T13:49:17.058Z,6.40
2023-04-20T13:51:45.424Z,6.50
2023-04-20T13:54:13.529Z,6.30
2023-04-20T13:56:41.670Z,5.90
2023-04-20T13:59:09.968Z,6.50
2023-04-20T14:01:39.055Z,5.80
2023-04-20T14:04:09.377Z,6.30
2023-04-20T14:06:38.300Z,6.10
2023-04-20T14:09:07.152Z,6.30
2023-04-20T14:11:35.230Z,6.40
2023-04-20T14:14:03.308Z,6.70
2023-04-20T14:16:31.614Z,5.50
2023-04-20T14:19:00.214Z,6.20
2023-04-20T14:21:28.988Z,6.10
2023-04-20T14:23:57.290Z,5.80
2023-04-20T14:26:27.553Z,5.10
2023-04-20T14:28:55.842Z,6.30
2023-04-20T14:31:24.075Z,5.50
2023-04-20T14:39:26.418Z,5.30
2023-04-20T14:41:54.789Z,5.10
2023-04-20T14:44:22.831Z,5.90
2023-04-20T14:46:51.800Z,5.30
2023-04-20T14:49:20.101Z,5.10
2023-04-20T14:51:48.139Z,4.50
2023-04-20T14:54:16.619Z,4.90
2023-04-20T14:56:45.091Z,5.30
2023-04-20T14:59:13.372Z,5.40
2023-04-20T15:01:51.338Z,5.10
2023-04-20T15:04:27.180Z,5.00
2023-04-20T15:06:55.605Z,5.00
2023-04-20T15:09:23.838Z,5.20
2023-04-20T15:11:51.976Z,5.20
2023-04-20T15:14:20.655Z,5.00
2023-04-20T15:16:52.059Z,5.80
2023-04-20T15:19:20.760Z,5.10
2023-04-20T15:21:49.233Z,5.50
2023-04-20T15:24:17.556Z,5.60
2023-04-20T15:26:46.112Z,4.80
2023-04-20T15:29:14.233Z,4.90
2023-04-20T15:31:45.486Z,4.90
2023-04-20T15:34:15.723Z,5.30
2023-04-20T15:36:44.013Z,5.20
2023-04-20T15:39:13.122Z,5.20
2023-04-20T15:41:41.253Z,5.10
2023-04-20T15:44:09.387Z,5.30
2023-04-20T15:46:38.195Z,5.30
2023-04-20T15:49:06.485Z,4.80
2023-04-20T15:51:34.573Z,5.00
2023-04-20T15:54:02.615Z,5.30
2023-04-20T15:56:31.081Z,5.00
2023-04-20T15:58:59.197Z,5.10
2023-04-20T16:01:27.310Z,5.00
2023-04-20T16:03:56.350Z,4.90
2023-04-20T16:06:24.695Z,4.90
2023-04-20T16:08:54.623Z,5.00
2023-04-20T16:11:23.561Z,5.20
2023-04-20T16:13:51.645Z,4.70
2023-04-20T16:16:19.790Z,5.10
2023-04-20T16:18:48.385Z,4.90
2023-04-20T16:21:16.484Z,4.50
2023-04-20T16:23:44.593Z,4.80
2023-04-20T16:26:12.773Z,4.20
2023-04-20T16:28:41.037Z,4.80
2023-04-20T16:31:09.328Z,4.40
2023-04-20T16:33:38.016Z,4.80
2023-04-20T16:36:06.225Z,4.70
2023-04-20T16:38:34.498Z,4.90
2023-04-20T16:41:02.907Z,4.70
2023-04-20T16:43:33.865Z,5.00
2023-04-20T16:46:02.146Z,5.30
2023-04-20T16:48:30.416Z,4.70
2023-04-20T16:50:58.576Z,4.60
2023-04-20T16:53:26.862Z,4.20
2023-04-20T16:55:55.093Z,4.70
2023-04-20T16:58:23.176Z,4.20
2023-04-20T17:00:51.417Z,4.20
2023-04-20T17:03:20.013Z,4.30
2023-04-20T17:05:49.309Z,4.00
2023-04-20T17:08:17.516Z,3.70
2023-04-20T17:10:46.130Z,4.30
2023-04-20T17:13:14.454Z,4.10
2023-04-20T17:15:45.073Z,4.70
2023-04-20T17:18:13.485Z,4.10
2023-04-20T17:20:42.355Z,4.50
2023-04-20T17:23:10.703Z,4.20
2023-04-20T17:25:38.780Z,4.20
2023-04-20T17:28:06.995Z,3.90
2023-04-20T17:30:35.414Z,3.70
2023-04-20T17:33:03.936Z,3.40
2023-04-20T17:35:32.019Z,3.80
2023-04-20T17:38:00.331Z,4.50
2023-04-20T17:40:28.800Z,4.60
2023-04-20T17:42:56.842Z,3.10
2023-04-20T17:45:24.970Z,3.60
2023-04-20T17:47:53.875Z,3.80
2023-04-20T17:50:22.780Z,3.80
2023-04-20T17:52:51.752Z,3.50
2023-04-20T17:55:20.765Z,3.90
2023-04-20T17:57:48.991Z,3.70
2023-04-20T18:00:17.349Z,3.90
2023-04-20T18:02:45.903Z,3.40
2023-04-20T18:05:14.266Z,3.80
2023-04-20T18:07:42.668Z,4.00
2023-04-20T18:10:13.759Z,4.00
2023-04-20T18:12:43.019Z,3.80
2023-04-20T18:15:12.173Z,4.20
2023-04-20T18:17:40.476Z,3.50
2023-04-20T18:20:08.987Z,4.20
2023-04-20T18:22:37.350Z,4.40
2023-04-20T18:25:06.058Z,3.80
2023-04-20T18:27:34.159Z,4.10
2023-04-20T18:30:02.484Z,3.90
2023-04-20T18:32:31.650Z,3.20
2023-04-20T18:35:00.444Z,2.90
2023-04-20T18:37:28.547Z,4.10
2023-04-20T18:39:58.245Z,3.90
2023-04-20T18:42:26.884Z,3.30
2023-04-20T18:44:56.129Z,3.40
2023-04-20T18:47:27.235Z,3.70
2023-04-20T18:49:55.640Z,3.70
2023-04-20T18:52:23.776Z,4.20
2023-04-20T18:54:52.856Z,3.30
2023-04-20T18:57:26.180Z,3.40
2023-04-20T18:59:56.450Z,3.40
2023-04-20T19:02:25.102Z,4.20
2023-04-20T19:04:53.515Z,4.00
2023-04-20T19:07:21.922Z,3.70
2023-04-20T19:09:50.127Z,4.00
2023-04-20T19:12:18.303Z,4.60
2023-04-20T19:14:48.920Z,4.20
2023-04-20T19:17:17.511Z,4.30
2023-04-20T19:19:46.122Z,4.80
2023-04-20T19:22:14.697Z,4.00
2023-04-20T19:24:43.198Z,5.70
2023-04-20T19:27:11.378Z,4.50
2023-04-20T19:29:39.562Z,4.20
2023-04-20T19:32:07.966Z,3.80
2023-04-20T19:34:36.542Z,4.60
2023-04-20T19:37:04.773Z,4.00
2023-04-20T19:39:34.681Z,4.30
2023-04-20T19:42:03.304Z,4.80
2023-04-20T19:44:31.692Z,3.60
2023-04-20T19:46:59.853Z,4.60
2023-04-20T19:49:28.077Z,4.90
2023-04-20T19:51:56.247Z,4.30
2023-04-20T19:54:24.603Z,3.70
2023-04-20T19:56:52.851Z,3.40
2023-04-20T19:59:21.158Z,3.70
2023-04-20T20:01:50.748Z,3.90
2023-04-20T20:04:20.560Z,3.40
2023-04-20T20:06:50.894Z,3.90
2023-04-20T20:09:21.599Z,3.70
2023-04-20T20:14:19.743Z,3.50
2023-04-20T20:16:48.035Z,3.30
2023-04-20T20:19:18.342Z,3.10
2023-04-20T20:21:46.718Z,3.10
2023-04-20T20:24:14.902Z,3.00
2023-04-20T20:26:43.151Z,3.90
2023-04-20T20:29:11.326Z,3.20
2023-04-20T20:31:39.704Z,3.10
2023-04-20T20:34:09.173Z,3.60
2023-04-20T20:36:37.475Z,3.70
2023-04-20T20:39:06.655Z,3.30
2023-04-20T20:41:34.832Z,2.80
2023-04-20T20:44:03.033Z,3.10
2023-04-20T20:46:31.885Z,3.20
2023-04-20T20:49:01.147Z,2.70
2023-04-20T20:51:29.575Z,3.00
2023-04-20T20:53:58.632Z,3.30
2023-04-20T20:56:26.973Z,3.20
2023-04-20T20:58:55.123Z,4.30
2023-04-20T21:01:23.280Z,3.40
2023-04-20T21:03:51.576Z,4.90
2023-04-20T21:06:19.985Z,4.20
2023-04-20T21:08:48.887Z,3.90
2023-04-20T21:11:17.070Z,5.10
2023-04-20T21:13:45.310Z,4.30
2023-04-20T21:16:13.478Z,4.40
2023-04-20T21:18:41.605Z,3.90
2023-04-20T21:21:13.662Z,3.80
2023-04-20T21:23:41.944Z,3.50
2023-04-20T21:26:10.037Z,4.20
2023-04-20T21:28:38.699Z,4.50
2023-04-20T21:31:06.769Z,4.30
2023-04-20T21:33:35.956Z,3.50
2023-04-20T21:36:04.288Z,3.40
2023-04-20T21:38:32.389Z,3.90
2023-04-20T21:41:00.722Z,4.00
2023-04-20T21:43:28.872Z,3.50
2023-04-20T21:45:57.022Z,4.70
2023-04-20T21:48:25.163Z,3.80
2023-04-20T21:50:53.230Z,3.70
2023-04-20T21:53:21.395Z,4.10
2023-04-20T21:55:49.497Z,4.10
2023-04-20T21:58:17.702Z,3.10
2023-04-20T22:00:45.773Z,3.80
2023-04-20T22:03:14.252Z,3.90
2023-04-20T22:05:42.909Z,3.40
2023-04-20T22:08:11.801Z,3.20
2023-04-20T22:10:39.891Z,3.70
2023-04-20T22:13:08.102Z,3.40
2023-04-20T22:15:36.530Z,4.30
2023-04-20T22:18:05.668Z,3.20
2023-04-20T22:20:34.029Z,3.50
2023-04-20T22:23:02.185Z,3.50
2023-04-20T22:25:30.693Z,3.00
2023-04-20T22:27:58.770Z,3.50
2023-04-20T22:30:26.889Z,2.90
2023-04-20T22:32:55.153Z,3.00
2023-04-20T22:35:23.295Z,3.20
2023-04-20T22:37:51.516Z,3.20
2023-04-20T22:40:19.956Z,3.40
2023-04-20T22:42:48.278Z,3.40
2023-04-20T22:45:19.753Z,3.40
2023-04-20T22:47:48.080Z,3.20
2023-04-20T22:50:16.500Z,3.20
2023-04-20T22:52:44.600Z,4.00
2023-04-20T22:55:12.786Z,3.20
2023-04-20T22:57:40.941Z,8.50
2023-04-20T23:00:10.900Z,5.10
2023-04-20T23:02:40.401Z,3.40
2023-04-20T23:05:09.775Z,3.60
2023-04-20T23:07:39.086Z,4.50
2023-04-20T23:10:08.203Z,3.70
2023-04-20T23:12:36.928Z,3.40
2023-04-20T23:15:06.120Z,3.70
2023-04-20T23:17:34.281Z,4.00
2023-04-20T23:20:02.566Z,4.10
2023-04-20T23:22:30.866Z,4.40
2023-04-20T23:24:58.889Z,3.80
2023-04-20T23:27:26.933Z,3.90
2023-04-20T23:29:55.131Z,3.80
2023-04-20T23:32:23.259Z,3.70
2023-04-20T23:34:51.384Z,4.10
2023-04-20T23:37:19.616Z,3.80
2023-04-20T23:39:47.952Z,4.00
2023-04-20T23:42:16.033Z,5.20
2023-04-20T23:44:44.121Z,4.50
2023-04-20T23:47:12.297Z,4.00
2023-04-20T23:49:40.377Z,3.60
2023-04-20T23:52:08.512Z,3.10
2023-04-20T23:54:36.582Z,3.50
2023-04-20T23:57:05.546Z,3.80
2023-04-20T23:59:36.695Z,3.70
